Time;durP1;ratioP1;P1;durP2;ratioP2;P2;SDS_P1;SDS_P2;PMS_P1;PMS_P2;Temp;Humidity;BMP_temperature;BMP_pressure;BME280_temperature;BME280_humidity;BME280_pressure;Samples;Min_cycle;Max_cycle;Signal;HPM_P1;HPM_P2
2022/06/06 00:00:22;;;;;;;2.65;1.45;;;;;;;21.60;55.67;100612.28;4973001;28;20053;-65
2022/06/06 00:03:06;;;;;;;6.50;1.55;;;;;;;21.37;56.62;100611.03;4972969;28;20065;-65
2022/06/06 00:05:51;;;;;;;4.07;1.52;;;;;;;21.60;56.68;100609.50;4970180;28;20053;-66
2022/06/06 00:08:38;;;;;;;6.25;1.77;;;;;;;21.89;56.92;100618.63;4953383;29;20522;-64
2022/06/06 00:11:23;;;;;;;7.22;1.55;;;;;;;22.36;56.84;100608.38;4961163;28;20054;-64
2022/06/06 00:14:10;;;;;;;3.03;1.45;;;;;;;22.72;55.85;100598.03;4972248;28;20357;-64
2022/06/06 00:16:56;;;;;;;8.45;1.38;;;;;;;23.02;53.84;100601.09;4966928;28;20053;-64
2022/06/06 00:19:41;;;;;;;3.22;1.13;;;;;;;23.09;52.76;100605.84;4972315;28;20042;-64
2022/06/06 00:22:26;;;;;;;5.45;1.10;;;;;;;23.23;53.16;100603.78;4972327;28;20058;-64
2022/06/06 00:25:11;;;;;;;9.45;1.50;;;;;;;23.17;51.57;100607.38;4971632;28;20415;-64
2022/06/06 00:27:56;;;;;;;5.13;1.08;;;;;;;23.03;52.27;100614.59;4959129;28;20050;-65
2022/06/06 00:30:41;;;;;;;4.53;1.48;;;;;;;22.89;52.55;100617.41;4954430;28;20070;-65
2022/06/06 00:36:34;;;;;;;5.60;1.60;;;;;;;22.95;52.96;100620.56;4971649;28;20403;-65
2022/06/06 00:39:19;;;;;;;4.68;1.42;;;;;;;23.18;52.61;100620.06;4968931;28;20041;-65
2022/06/06 00:42:13;;;;;;;4.38;1.13;;;;;;;23.10;51.51;100612.97;4972371;28;20054;-65
2022/06/06 00:45:30;;;;;;;2.17;0.95;;;;;;;23.30;52.01;100619.63;4971759;28;20066;-64
2022/06/06 00:48:26;;;;;;;3.47;1.23;;;;;;;23.41;51.41;100620.38;4971388;28;20058;-64
2022/06/06 00:51:15;;;;;;;6.28;1.10;;;;;;;23.31;51.80;100613.69;4971633;28;20514;-64
2022/06/06 00:54:02;;;;;;;3.75;1.33;;;;;;;23.33;51.41;100618.81;4966666;28;20050;-64
2022/06/06 00:56:52;;;;;;;4.15;0.80;;;;;;;23.37;51.03;100612.03;4971954;28;20522;-64
2022/06/06 00:59:38;;;;;;;8.00;0.77;;;;;;;23.30;50.71;100611.31;4971746;28;20054;-66
2022/06/06 01:02:23;;;;;;;2.97;0.63;;;;;;;23.24;50.73;100615.69;4972147;28;20418;-65
2022/06/06 01:05:09;;;;;;;5.55;0.52;;;;;;;23.21;50.92;100605.41;4971928;28;20053;-65
2022/06/06 01:07:54;;;;;;;8.57;0.98;;;;;;;23.20;50.35;100609.38;4971676;28;20541;-66
2022/06/06 01:10:39;;;;;;;2.50;0.70;;;;;;;23.03;50.54;100611.03;4970076;28;20407;-65
2022/06/06 01:13:25;;;;;;;3.60;0.70;;;;;;;22.74;49.46;100617.84;4971002;28;20054;-65
2022/06/06 01:16:24;;;;;;;1.48;0.57;;;;;;;22.47;51.24;100620.25;4971442;28;20054;-65
2022/06/06 01:19:46;;;;;;;2.08;0.70;;;;;;;22.42;50.56;100615.09;4968355;28;20049;-65
2022/06/06 01:22:54;;;;;;;2.28;0.95;;;;;;;22.08;50.86;100614.75;4952855;29;20063;-65
2022/06/06 01:26:27;;;;;;;4.38;0.93;;;;;;;22.07;49.80;100613.94;4952363;29;20051;-65
2022/06/06 01:29:15;;;;;;;7.13;0.60;;;;;;;21.53;51.32;100606.75;4952590;29;20050;-66
2022/06/06 01:32:12;;;;;;;2.75;0.70;;;;;;;21.60;51.47;100611.47;4971650;28;20050;-65
2022/06/06 01:34:58;;;;;;;1.52;0.60;;;;;;;21.57;51.45;100603.97;4971335;28;20045;-65
2022/06/06 01:37:43;;;;;;;3.97;0.88;;;;;;;21.56;53.00;100614.25;4966279;28;20050;-66
2022/06/06 01:40:42;;;;;;;2.35;0.73;;;;;;;21.31;52.91;100603.13;4969695;28;20046;-65
2022/06/06 01:43:49;;;;;;;4.88;1.13;;;;;;;21.43;52.77;100606.72;4975312;28;20058;-65
2022/06/06 01:46:36;;;;;;;5.55;0.98;;;;;;;21.35;53.44;100600.34;4975040;28;20050;-65
2022/06/06 01:49:23;;;;;;;11.63;1.42;;;;;;;21.31;53.42;100599.56;4975155;28;20069;-66
2022/06/06 01:52:15;;;;;;;4.32;0.80;;;;;;;21.18;53.67;100601.88;4973675;28;20039;-65
2022/06/06 01:54:59;;;;;;;3.33;0.93;;;;;;;20.39;54.78;100599.06;4974179;28;20053;-66
2022/06/06 01:57:46;;;;;;;3.83;0.88;;;;;;;20.76;54.69;100598.91;4974539;28;20513;-66
2022/06/06 02:00:34;;;;;;;2.63;1.00;;;;;;;21.02;54.18;100590.34;4972911;28;20514;-66
2022/06/06 02:03:20;;;;;;;2.60;1.00;;;;;;;20.88;54.92;100593.81;4971784;28;20041;-66
2022/06/06 02:06:05;;;;;;;4.45;0.82;;;;;;;20.97;54.94;100596.25;4974928;28;20069;-66
2022/06/06 02:08:53;;;;;;;2.05;1.10;;;;;;;20.71;54.43;100599.28;4974655;28;20402;-66
2022/06/06 02:11:38;;;;;;;3.67;1.30;;;;;;;20.80;55.37;100597.72;4964786;28;20058;-66
2022/06/06 02:14:23;;;;;;;3.20;1.00;;;;;;;20.84;54.72;100592.22;4969383;28;20054;-66
2022/06/06 02:17:08;;;;;;;2.72;0.80;;;;;;;21.09;53.89;100598.66;4969144;28;20049;-66
2022/06/06 02:19:53;;;;;;;4.82;1.33;;;;;;;20.83;54.25;100596.94;4974325;28;20042;-65
2022/06/06 02:22:38;;;;;;;7.53;1.27;;;;;;;20.74;55.19;100604.00;4972111;28;20050;-63
2022/06/06 02:25:25;;;;;;;2.25;1.02;;;;;;;20.71;54.60;100605.59;4974215;28;20427;-63
2022/06/06 02:28:14;;;;;;;13.52;2.35;;;;;;;20.57;55.55;100611.00;4974206;28;20057;-63
2022/06/06 02:30:59;;;;;;;4.20;0.90;;;;;;;20.33;56.08;100619.94;4974425;28;20058;-65
2022/06/06 02:33:44;;;;;;;4.72;1.20;;;;;;;20.41;56.59;100613.28;4955152;29;20046;-65
2022/06/06 02:36:29;;;;;;;3.47;1.20;;;;;;;20.49;56.29;100615.72;4954742;29;20050;-66
2022/06/06 02:39:14;;;;;;;11.15;1.73;;;;;;;20.53;54.64;100614.94;4970130;28;20046;-66
2022/06/06 02:42:00;;;;;;;8.13;1.15;;;;;;;20.75;55.15;100614.69;4966553;28;20049;-66
2022/06/06 02:44:46;;;;;;;3.58;1.05;;;;;;;20.63;56.23;100625.25;4973425;28;20498;-65
2022/06/06 02:47:31;;;;;;;6.05;0.80;;;;;;;20.80;55.25;100619.06;4974081;28;20054;-65
2022/06/06 02:50:19;;;;;;;1.58;0.63;;;;;;;20.74;56.67;100613.09;4971917;28;20050;-64
2022/06/06 02:53:05;;;;;;;6.07;1.10;;;;;;;20.83;57.20;100613.53;4988173;22;20049;-78
2022/06/06 02:55:52;;;;;;;6.70;1.55;;;;;;;20.40;56.03;100622.75;4983532;28;20044;-77
2022/06/06 02:58:37;;;;;;;3.95;1.30;;;;;;;20.58;55.05;100612.59;4996338;28;20053;-77
2022/06/06 03:01:22;;;;;;;5.90;0.82;;;;;;;20.85;55.75;100621.44;4997200;28;20049;-77
2022/06/06 03:04:07;;;;;;;5.57;2.00;;;;;;;20.27;56.69;100616.69;4988337;28;20046;-78
2022/06/06 03:06:54;;;;;;;5.75;1.77;;;;;;;20.41;56.89;100616.06;4975854;28;20432;-78
2022/06/06 03:10:09;;;;;;;4.13;1.27;;;;;;;20.57;55.65;100613.00;4985051;28;20062;-78
2022/06/06 03:13:32;;;;;;;6.75;1.60;;;;;;;20.75;55.26;100614.69;4982319;28;20062;-78
2022/06/06 03:23:10;;;;;;;4.32;1.42;;;;;;;20.57;55.99;100611.00;4981556;28;20049;-78
2022/06/06 03:26:22;;;;;;;5.63;1.30;;;;;;;20.73;56.04;100610.72;4986294;28;20049;-78
2022/06/06 03:29:44;;;;;;;3.95;1.52;;;;;;;20.62;56.27;100618.16;4978265;28;20054;-78
2022/06/06 03:32:50;;;;;;;5.05;1.40;;;;;;;20.67;57.36;100620.56;4982376;28;20357;-78
2022/06/06 03:35:40;;;;;;;7.90;1.40;;;;;;;20.79;57.01;100617.47;4990703;28;20045;-78
2022/06/06 03:38:45;;;;;;;2.47;1.35;;;;;;;20.88;56.48;100626.19;4980656;28;20053;-78
2022/06/06 03:41:46;;;;;;;6.57;1.38;;;;;;;21.01;56.97;100638.53;4983591;28;20046;-78
2022/06/06 03:44:53;;;;;;;8.02;1.50;;;;;;;21.17;56.23;100644.56;4977048;28;20058;-78
2022/06/06 03:47:59;;;;;;;9.90;2.03;;;;;;;21.11;56.03;100650.81;4979835;28;20050;-78
2022/06/06 03:50:55;;;;;;;8.07;2.28;;;;;;;21.29;55.87;100646.97;4957169;29;20416;-77
2022/06/06 03:54:02;;;;;;;4.93;1.08;;;;;;;21.61;56.40;100651.81;4968725;28;20050;-77
2022/06/06 03:57:12;;;;;;;9.93;1.45;;;;;;;21.73;54.18;100657.00;4982010;28;20053;-78
2022/06/06 04:00:00;;;;;;;11.90;1.77;;;;;;;21.40;54.68;100648.97;4986723;28;20107;-77
2022/06/06 04:02:46;;;;;;;5.45;1.70;;;;;;;21.31;55.09;100652.91;4981180;28;20515;-78
2022/06/06 04:05:36;;;;;;;7.85;1.90;;;;;;;21.23;54.66;100648.50;4985730;28;20050;-78
2022/06/06 04:08:22;;;;;;;6.38;2.25;;;;;;;20.82;55.95;100650.66;4991226;28;20420;-78
2022/06/06 04:11:28;;;;;;;6.07;2.10;;;;;;;20.57;56.75;100654.44;4981282;28;20111;-77
2022/06/06 04:14:31;;;;;;;9.63;1.95;;;;;;;20.72;56.85;100653.38;4980539;28;20419;-78
2022/06/06 04:17:19;;;;;;;8.00;2.50;;;;;;;20.80;56.69;100649.47;4980065;28;20054;-77
2022/06/06 04:20:15;;;;;;;14.38;2.30;;;;;;;20.82;57.13;100645.16;4979140;28;20068;-78
2022/06/06 04:23:51;;;;;;;15.77;2.55;;;;;;;20.93;57.59;100653.47;4984550;28;20049;-77
2022/06/06 04:27:07;;;;;;;10.60;2.85;;;;;;;21.27;57.06;100651.31;4989916;28;20061;-78
2022/06/06 04:30:01;;;;;;;9.25;2.60;;;;;;;21.36;57.28;100650.94;4976198;28;20046;-78
2022/06/06 04:33:01;;;;;;;9.30;3.75;;;;;;;21.59;56.32;100645.88;4992847;28;20054;-78
2022/06/06 04:36:11;;;;;;;7.78;2.22;;;;;;;21.57;57.06;100651.81;4981186;28;20042;-77
2022/06/06 04:39:06;;;;;;;7.85;2.40;;;;;;;21.87;56.31;100657.00;4980525;28;20049;-78
2022/06/06 04:41:57;;;;;;;8.70;3.05;;;;;;;21.79;56.22;100666.47;4985237;28;20054;-78
2022/06/06 04:45:00;;;;;;;10.48;3.08;;;;;;;21.97;55.98;100667.34;4980033;28;20535;-78
2022/06/06 04:47:46;;;;;;;17.33;2.95;;;;;;;22.12;55.09;100666.19;4985836;28;20416;-79
2022/06/06 04:50:32;;;;;;;18.85;4.85;;;;;;;22.30;55.34;100665.41;4975588;28;20051;-78
2022/06/06 04:53:22;;;;;;;6.78;2.33;;;;;;;22.34;55.65;100666.19;4983835;28;20154;-78
2022/06/06 04:56:08;;;;;;;23.65;4.88;;;;;;;22.42;55.53;100656.66;4976067;28;20046;-78
2022/06/06 04:58:58;;;;;;;9.88;2.72;;;;;;;22.68;54.78;100658.22;4974662;28;20054;-79
2022/06/06 05:01:43;;;;;;;13.40;4.70;;;;;;;22.38;55.90;100670.53;4974777;28;20046;-79
2022/06/06 05:04:27;;;;;;;20.23;3.88;;;;;;;22.45;55.37;100666.97;4988912;28;20057;-79
2022/06/06 05:07:33;;;;;;;34.17;5.32;;;;;;;22.62;55.41;100668.94;4984316;28;20046;-79
2022/06/06 05:10:44;;;;;;;;;;;;;;;22.79;54.72;100687.56;4984192;28;20041;-79
2022/06/06 05:13:43;;;;;;;14.57;4.10;;;;;;;22.94;53.83;100691.09;4986927;28;19914;-79
2022/06/06 05:16:56;;;;;;;11.55;4.30;;;;;;;22.97;53.61;100693.84;4986123;28;20266;-80
2022/06/06 05:20:08;;;;;;;9.65;3.92;;;;;;;23.09;53.73;100700.97;4984570;28;20046;-78
2022/06/06 05:23:25;;;;;;;11.18;3.83;;;;;;;23.12;53.55;100707.69;4985116;28;20522;-79
2022/06/06 05:26:33;;;;;;;21.05;4.55;;;;;;;23.24;53.95;100696.16;4985908;28;20053;-80
2022/06/06 05:29:31;;;;;;;48.47;5.32;;;;;;;23.22;53.63;100715.19;4988358;28;20526;-80
2022/06/06 05:32:35;;;;;;;18.80;4.50;;;;;;;23.18;53.83;100700.53;4981540;28;20059;-80
2022/06/06 05:35:38;;;;;;;11.48;4.13;;;;;;;23.36;53.52;100696.53;4995105;28;20518;-80
2022/06/06 05:38:28;;;;;;;39.10;5.53;;;;;;;23.59;52.39;100709.13;4980785;28;20070;-87
2022/06/06 05:41:30;;;;;;;15.55;4.18;;;;;;;23.75;51.94;100710.25;4980247;28;20053;-77
2022/06/06 05:44:44;;;;;;;13.25;4.45;;;;;;;23.83;52.13;100717.34;4975498;28;20045;-78
2022/06/06 05:47:32;;;;;;;14.20;4.20;;;;;;;23.95;51.83;100707.75;4984358;28;20053;-78
2022/06/06 05:50:29;;;;;;;11.45;3.92;;;;;;;24.09;51.47;100716.00;4986433;28;20042;-77
2022/06/06 05:53:41;;;;;;;17.55;5.20;;;;;;;24.27;50.58;100715.91;4976491;28;20423;-78
2022/06/06 05:56:55;;;;;;;11.70;4.22;;;;;;;24.49;49.55;100716.50;4978506;28;20054;-78
2022/06/06 06:00:05;;;;;;;13.85;3.60;;;;;;;24.35;49.98;100720.22;4977953;28;20058;-77
2022/06/06 06:03:02;;;;;;;;;;;;;;;24.20;50.49;100724.28;4977181;28;20058;-77
2022/06/06 06:05:59;;;;;;;15.98;4.22;;;;;;;23.86;51.08;100733.22;4977156;28;19914;-78
2022/06/06 06:09:27;;;;;;;16.88;3.80;;;;;;;23.98;51.25;100739.47;4973479;28;20042;-78
2022/06/06 06:12:31;;;;;;;13.20;3.75;;;;;;;23.94;50.93;100749.81;4970760;28;20534;-78
2022/06/06 06:15:31;;;;;;;12.70;3.80;;;;;;;24.17;50.84;100745.34;4977131;28;20049;-78
2022/06/06 06:18:19;;;;;;;49.30;5.45;;;;;;;24.31;49.58;100738.91;4987386;28;20070;-77
2022/06/06 06:21:20;;;;;;;19.55;3.50;;;;;;;24.48;49.16;100740.75;4971044;28;20042;-77
2022/06/06 06:24:11;;;;;;;9.98;3.13;;;;;;;24.50;48.23;100746.69;4974357;28;20049;-77
2022/06/06 06:26:57;;;;;;;7.32;3.25;;;;;;;24.74;48.25;100744.91;4969312;28;20057;-78
2022/06/06 06:29:42;;;;;;;11.93;3.33;;;;;;;24.40;48.92;100742.00;4980183;28;20053;-78
2022/06/06 06:33:11;;;;;;;9.15;2.47;;;;;;;25.05;43.88;100745.84;4971461;28;20054;-79
2022/06/06 06:36:30;;;;;;;77.18;3.90;;;;;;;25.40;44.10;100753.81;4971673;28;20045;-79
2022/06/06 06:39:25;;;;;;;14.13;2.63;;;;;;;25.43;43.06;100750.19;4969251;28;20523;-79
2022/06/06 06:42:39;;;;;;;7.03;1.85;;;;;;;25.80;41.70;100749.34;4987933;28;20057;-79
2022/06/06 06:45:29;;;;;;;16.35;3.13;;;;;;;26.07;42.36;100754.97;4973490;28;20058;-78
2022/06/06 06:48:24;;;;;;;3.95;1.40;;;;;;;26.28;41.59;100754.69;4975361;28;20045;-78
2022/06/06 06:51:32;;;;;;;11.38;2.33;;;;;;;26.59;39.90;100757.41;4977852;28;20062;-77
2022/06/06 06:54:27;;;;;;;11.48;1.75;;;;;;;26.51;41.49;100758.72;4996051;28;20057;-78
2022/06/06 06:57:43;;;;;;;6.35;1.90;;;;;;;26.88;41.18;100764.09;4974367;28;20046;-78
2022/06/06 07:00:39;;;;;;;5.57;2.45;;;;;;;26.61;40.43;100754.97;4968710;28;20042;-78
2022/06/06 07:10:30;;;;;;;5.97;2.00;;;;;;;27.77;37.54;100779.19;4957006;29;20046;-77
2022/06/06 07:13:21;;;;;;;5.13;1.50;;;;;;;28.16;35.66;100783.97;4979792;28;20037;-78
2022/06/06 07:16:20;;;;;;;4.70;1.38;;;;;;;28.51;35.51;100783.13;4986728;28;20046;-78
2022/06/06 07:19:12;;;;;;;6.82;1.33;;;;;;;27.77;36.98;100774.41;4969687;28;20045;-77
2022/06/06 07:22:00;;;;;;;5.07;1.50;;;;;;;27.55;37.79;100776.81;4976143;28;20055;-77
2022/06/06 07:24:54;;;;;;;3.75;0.90;;;;;;;27.45;37.80;100771.41;4966007;28;20411;-78
2022/06/06 07:27:39;;;;;;;3.05;1.13;;;;;;;27.11;38.99;100777.25;4967664;28;20041;-77
2022/06/06 07:30:29;;;;;;;10.07;1.25;;;;;;;26.91;40.23;100774.44;4961478;28;20050;-77
2022/06/06 07:33:45;;;;;;;6.95;1.20;;;;;;;26.85;39.71;100773.31;4964604;28;20053;-78
2022/06/06 07:36:46;;;;;;;4.30;2.30;;;;;;;26.89;39.96;100770.47;4968144;28;20049;-78
2022/06/06 07:40:08;;;;;;;6.43;1.73;;;;;;;26.95;40.21;100769.56;4968983;28;20050;-78
2022/06/06 07:43:15;;;;;;;13.10;1.48;;;;;;;26.92;40.03;100780.81;4967709;28;20041;-78
2022/06/06 07:46:42;;;;;;;51.80;4.18;;;;;;;26.98;39.25;100774.28;4966123;28;20041;-77
2022/06/06 07:49:29;;;;;;;13.52;1.48;;;;;;;26.74;40.31;100773.47;4971033;28;20054;-78
2022/06/06 07:52:35;;;;;;;7.03;1.40;;;;;;;27.01;40.39;100790.19;4972953;28;20057;-78
2022/06/06 07:55:44;;;;;;;6.72;1.45;;;;;;;27.27;40.16;100790.53;4968297;28;20046;-78
2022/06/06 07:58:49;;;;;;;2.55;1.23;;;;;;;27.02;40.65;100793.78;4972967;28;20049;-78
2022/06/06 08:02:03;;;;;;;4.68;1.40;;;;;;;27.11;41.23;100789.22;4973407;28;20042;-78
2022/06/06 08:05:06;;;;;;;16.88;1.77;;;;;;;27.37;41.08;100795.13;4978089;28;20050;-78
2022/06/06 08:07:53;;;;;;;20.20;2.40;;;;;;;27.32;41.26;100792.84;4973287;28;20066;-78
2022/06/06 08:10:45;;;;;;;14.35;1.75;;;;;;;27.32;40.98;100790.03;4973687;28;20049;-80
2022/06/06 08:13:54;;;;;;;6.72;1.48;;;;;;;27.31;40.24;100792.03;4973018;28;20057;-78
2022/06/06 08:16:45;;;;;;;11.18;1.83;;;;;;;27.51;40.41;100786.50;4973674;28;20543;-78
2022/06/06 08:20:00;;;;;;;5.53;1.23;;;;;;;27.72;40.00;100783.28;4978957;28;20049;-79
2022/06/06 08:22:46;;;;;;;8.05;1.60;;;;;;;27.74;40.40;100785.63;4980423;28;20045;-78
2022/06/06 08:25:35;;;;;;;12.27;2.28;;;;;;;27.97;40.00;100783.53;4972905;28;20049;-78
2022/06/06 08:28:21;;;;;;;19.02;1.92;;;;;;;27.79;40.75;100783.13;4965950;28;20428;-78
2022/06/06 08:31:07;;;;;;;5.57;1.60;;;;;;;28.08;40.33;100784.09;4967961;28;20042;-79
2022/06/06 08:33:52;;;;;;;11.70;1.70;;;;;;;27.77;41.08;100779.19;4973361;28;20053;-78
2022/06/06 08:36:52;;;;;;;11.20;2.65;;;;;;;27.98;39.40;100779.53;4973620;28;20058;-79
2022/06/06 08:40:13;;;;;;;5.68;1.60;;;;;;;28.35;39.17;100775.50;4978347;28;20527;-78
2022/06/06 08:42:58;;;;;;;11.32;1.55;;;;;;;28.46;38.88;100789.25;4969554;28;20535;-78
2022/06/06 08:46:16;;;;;;;8.65;1.65;;;;;;;28.41;39.45;100786.97;4964910;28;20057;-78
2022/06/06 08:49:03;;;;;;;12.40;1.98;;;;;;;28.44;39.99;100789.66;4984072;28;20065;-78
2022/06/06 08:51:59;;;;;;;7.07;1.48;;;;;;;28.46;39.81;100792.03;4974547;28;20657;-79
2022/06/06 08:54:58;;;;;;;8.73;3.50;;;;;;;28.52;39.40;100787.50;4999085;23;20079;-78
2022/06/06 08:58:19;;;;;;;4.45;1.38;;;;;;;28.50;39.79;100789.94;4987121;28;20061;-77
2022/06/06 09:01:48;;;;;;;6.85;1.25;;;;;;;28.50;40.28;100787.16;4996956;28;20046;-78
2022/06/06 09:04:58;;;;;;;4.68;1.70;;;;;;;28.52;40.27;100798.69;4985610;28;20427;-80
2022/06/06 09:08:03;;;;;;;8.25;2.20;;;;;;;28.53;41.10;100791.88;4976751;28;20054;-78
2022/06/06 09:11:16;;;;;;;13.70;2.50;;;;;;;28.78;40.42;100791.31;4979502;28;20526;-78
2022/06/06 09:14:33;;;;;;;11.52;1.92;;;;;;;28.71;40.86;100783.84;4967012;28;20531;-78
2022/06/06 09:17:24;;;;;;;4.15;2.00;;;;;;;28.78;41.01;100789.28;4991789;28;20057;-77
2022/06/06 09:20:47;;;;;;;10.57;1.90;;;;;;;28.75;40.94;100789.41;4978622;28;20041;-78
2022/06/06 09:23:38;;;;;;;7.32;1.70;;;;;;;28.70;41.04;100787.84;4975517;28;20424;-78
2022/06/06 09:26:36;;;;;;;8.48;3.03;;;;;;;28.69;40.61;100786.31;4975589;28;20054;-79
2022/06/06 09:29:53;;;;;;;8.30;1.63;;;;;;;28.72;40.01;100787.44;4979865;28;20533;-79
2022/06/06 09:33:09;;;;;;;9.38;1.80;;;;;;;28.78;39.32;100791.31;4985497;28;20053;-79
2022/06/06 09:35:57;;;;;;;7.03;1.48;;;;;;;28.86;39.14;100790.69;4986632;28;20045;-78
2022/06/06 09:39:13;;;;;;;4.35;1.10;;;;;;;28.84;38.74;100787.53;4980471;28;20407;-80
2022/06/06 09:42:13;;;;;;;7.53;1.80;;;;;;;28.89;38.16;100787.03;4981259;28;20041;-80
2022/06/06 09:45:23;;;;;;;8.05;1.70;;;;;;;28.99;37.82;100792.78;4967194;28;20046;-79
2022/06/06 09:48:41;;;;;;;6.72;1.27;;;;;;;29.02;38.25;100789.88;4988852;28;20551;-79
2022/06/06 09:51:57;;;;;;;5.63;1.23;;;;;;;29.04;38.25;100784.63;4976787;28;20062;-81
2022/06/06 10:01:20;;;;;;;8.07;2.17;;;;;;;29.60;37.63;100785.13;4977701;28;20062;-81
2022/06/06 10:04:45;;;;;;;6.28;2.15;;;;;;;29.61;37.32;100769.09;4976534;28;20045;-81
2022/06/06 10:07:45;;;;;;;4.63;1.45;;;;;;;29.50;37.84;100775.00;4975457;28;20535;-82
2022/06/06 10:10:59;;;;;;;5.43;1.63;;;;;;;29.44;37.73;100770.38;4976749;28;20046;-81
2022/06/06 10:14:03;;;;;;;10.25;2.33;;;;;;;29.41;38.22;100763.63;4978640;28;20123;-79
2022/06/06 10:17:11;;;;;;;7.90;1.58;;;;;;;29.42;38.05;100759.59;4976439;28;20400;-81
2022/06/06 10:20:37;;;;;;;11.52;1.58;;;;;;;29.42;37.97;100762.41;4984443;28;20049;-80
2022/06/06 10:24:00;;;;;;;9.15;1.80;;;;;;;29.49;37.90;100755.81;4975422;28;20571;-79
2022/06/06 10:27:09;;;;;;;6.20;1.80;;;;;;;29.51;37.85;100756.94;4984377;28;20045;-83
2022/06/06 10:30:11;;;;;;;8.18;2.10;;;;;;;29.46;38.36;100749.06;4971080;28;20523;-80
2022/06/06 10:33:31;;;;;;;8.15;1.50;;;;;;;29.47;38.05;100742.25;4983214;28;20054;-81
2022/06/06 10:36:48;;;;;;;11.70;1.85;;;;;;;29.57;37.13;100734.75;4978799;28;20526;-81
2022/06/06 10:39:32;;;;;;;8.02;1.67;;;;;;;29.60;37.37;100733.88;4975639;28;20423;-81
2022/06/06 10:42:22;;;;;;;167.43;31.30;;;;;;;29.54;37.62;100733.63;4978172;28;20045;-81
2022/06/06 10:45:25;;;;;;;176.00;37.90;;;;;;;29.55;37.51;100721.19;4971068;28;20042;-80
2022/06/06 10:48:29;;;;;;;103.93;21.55;;;;;;;29.54;37.41;100716.81;4989283;28;20030;-81
2022/06/06 10:51:40;;;;;;;58.40;13.23;;;;;;;29.51;37.22;100717.69;4987467;28;20043;-81
2022/06/06 10:54:53;;;;;;;61.80;15.85;;;;;;;29.52;37.51;100729.69;4970164;28;20038;-81
2022/06/06 10:57:41;;;;;;;39.63;8.80;;;;;;;29.44;37.60;100717.91;4997070;28;20046;-78
2022/06/06 11:00:48;;;;;;;12.15;3.58;;;;;;;29.51;37.38;100737.31;4964154;28;20046;-79
2022/06/06 11:03:49;;;;;;;7.57;2.10;;;;;;;29.65;36.56;100725.72;4982477;28;20601;-79
2022/06/06 11:06:55;;;;;;;20.88;3.17;;;;;;;29.70;36.24;100730.75;4973475;28;20049;-78
2022/06/06 11:10:07;;;;;;;16.25;1.80;;;;;;;29.87;36.29;100725.06;4977355;28;20054;-78
2022/06/06 11:13:10;;;;;;;9.43;2.08;;;;;;;30.07;35.66;100728.47;4971205;28;20062;-79
2022/06/06 11:16:08;;;;;;;4.53;1.10;;;;;;;30.22;34.96;100717.59;4967119;28;20061;-78
2022/06/06 11:19:11;;;;;;;5.75;1.20;;;;;;;30.17;35.38;100722.50;4973605;28;20050;-78
2022/06/06 11:22:22;;;;;;;7.40;1.80;;;;;;;30.42;35.20;100727.31;4976064;28;20058;-77
2022/06/06 11:25:15;;;;;;;14.90;1.52;;;;;;;30.59;34.38;100716.75;4981397;28;20051;-78
2022/06/06 11:28:31;;;;;;;3.10;1.10;;;;;;;30.51;34.39;100712.63;4976463;28;20653;-78
2022/06/06 11:31:37;;;;;;;8.23;1.25;;;;;;;30.50;34.80;100711.84;4973490;28;20411;-79
2022/06/06 11:34:32;;;;;;;4.57;1.45;;;;;;;30.65;34.87;100712.13;4986821;28;20061;-79
2022/06/06 11:37:41;;;;;;;7.57;1.50;;;;;;;30.70;34.80;100713.59;4979205;28;20425;-80
2022/06/06 11:40:35;;;;;;;14.73;1.50;;;;;;;30.89;35.00;100718.13;4985758;28;20530;-77
2022/06/06 11:43:23;;;;;;;9.70;1.88;;;;;;;30.99;34.47;100717.75;4971319;28;20058;-78
2022/06/06 11:46:26;;;;;;;10.88;2.00;;;;;;;30.89;34.70;100726.56;4971572;28;20053;-78
2022/06/06 11:49:48;;;;;;;7.57;1.50;;;;;;;31.00;34.80;100724.94;4965204;28;20062;-79
2022/06/06 11:52:51;;;;;;;71.60;5.65;;;;;;;31.16;33.29;100724.00;4963480;28;20050;-78
2022/06/06 11:55:54;;;;;;;12.75;2.30;;;;;;;31.09;33.19;100718.63;4984586;28;20049;-77
2022/06/06 11:58:59;;;;;;;6.63;2.15;;;;;;;31.19;33.13;100714.66;4982459;28;20119;-79
2022/06/06 12:02:35;;;;;;;5.85;1.38;;;;;;;31.24;32.53;100708.44;4966929;28;20042;-79
2022/06/06 12:05:42;;;;;;;10.35;1.05;;;;;;;31.18;31.08;100715.91;4970638;28;20057;-79
2022/06/06 12:08:44;;;;;;;8.73;1.55;;;;;;;31.32;29.88;100704.16;4963591;28;20119;-78
2022/06/06 12:11:53;;;;;;;4.00;1.15;;;;;;;31.30;30.58;100712.25;4986896;28;20054;-79
2022/06/06 12:15:06;;;;;;;7.13;1.67;;;;;;;31.28;30.36;100702.72;4973490;28;20527;-79
2022/06/06 12:18:22;;;;;;;7.82;2.42;;;;;;;31.25;31.31;100700.81;4977093;28;20077;-79
2022/06/06 12:21:31;;;;;;;5.72;1.25;;;;;;;31.21;31.67;100702.97;4981351;28;20034;-78
2022/06/06 12:24:28;;;;;;;7.60;1.23;;;;;;;31.23;31.74;100694.88;4956446;28;20066;-78
2022/06/06 12:27:46;;;;;;;10.18;1.80;;;;;;;31.34;32.11;100695.28;4968073;28;20046;-78
2022/06/06 12:30:49;;;;;;;4.53;1.25;;;;;;;31.48;32.71;100700.34;4988465;28;20050;-79
2022/06/06 12:33:44;;;;;;;7.75;1.50;;;;;;;31.40;32.98;100688.56;4986007;28;20427;-79
2022/06/06 12:36:43;;;;;;;5.10;1.35;;;;;;;31.55;33.64;100683.19;4967084;28;20420;-80
2022/06/06 12:39:30;;;;;;;8.23;1.60;;;;;;;31.39;33.00;100684.19;4984388;28;20054;-79
2022/06/06 12:42:43;;;;;;;6.80;0.98;;;;;;;31.59;31.92;100683.09;4965176;28;20412;-80
2022/06/06 12:45:34;;;;;;;3.55;1.40;;;;;;;31.44;32.67;100669.53;4962506;28;20047;-80
2022/06/06 12:48:28;;;;;;;9.05;1.50;;;;;;;31.46;32.87;100682.34;4967186;28;20046;-78
2022/06/06 12:51:33;;;;;;;5.60;1.65;;;;;;;31.40;32.90;100668.91;4970295;28;20062;-81
2022/06/06 12:58:07;;;;;;;7.68;1.75;;;;;;;31.49;33.27;100656.94;4966824;28;20411;-80
2022/06/06 13:04:34;;;;;;;16.17;1.85;;;;;;;31.61;33.82;100655.28;4979386;28;20524;-81
2022/06/06 13:07:44;;;;;;;6.20;1.27;;;;;;;31.65;33.40;100658.75;4967406;28;20054;-82
2022/06/06 13:10:35;;;;;;;5.30;1.27;;;;;;;31.70;33.32;100649.72;4967810;28;20050;-82
2022/06/06 13:13:40;;;;;;;2.97;1.42;;;;;;;31.71;32.53;100651.28;4980891;28;20555;-81
2022/06/06 13:16:42;;;;;;;8.63;1.88;;;;;;;31.63;33.35;100647.19;4988057;28;20127;-82
2022/06/06 13:19:40;;;;;;;10.73;1.67;;;;;;;31.57;33.14;100640.59;4982860;28;20046;-81
2022/06/06 13:22:47;;;;;;;7.28;1.98;;;;;;;31.55;33.78;100635.41;4962759;28;20412;-82
2022/06/06 13:25:53;;;;;;;7.68;1.67;;;;;;;31.58;33.02;100637.34;4983695;28;20050;-82
2022/06/06 13:28:55;;;;;;;8.73;1.35;;;;;;;31.62;32.85;100634.38;4986947;28;20054;-79
2022/06/06 13:32:01;;;;;;;19.92;2.35;;;;;;;31.71;32.94;100625.97;4967264;28;20046;-82
2022/06/06 13:35:17;;;;;;;6.60;1.75;;;;;;;31.71;33.56;100634.41;4984078;28;20065;-83
2022/06/06 13:38:12;;;;;;;9.88;1.65;;;;;;;31.70;32.91;100622.38;4971818;28;20045;-81
2022/06/06 13:41:27;;;;;;;8.60;1.40;;;;;;;31.54;33.60;100614.16;4957825;28;20038;-82
2022/06/06 13:44:47;;;;;;;3.38;1.27;;;;;;;31.60;33.82;100617.16;4987130;28;20050;-81
2022/06/06 13:47:56;;;;;;;8.40;1.75;;;;;;;31.64;32.97;100617.84;4970069;28;20066;-82
2022/06/06 13:50:59;;;;;;;7.68;1.80;;;;;;;31.69;32.92;100608.78;4991015;28;20073;-81
2022/06/06 13:54:01;;;;;;;8.23;1.73;;;;;;;31.66;33.01;100607.69;4981065;28;20041;-79
2022/06/06 13:57:09;;;;;;;5.75;1.38;;;;;;;31.66;32.74;100601.25;4977631;28;20050;-79
2022/06/06 14:00:19;;;;;;;12.77;2.42;;;;;;;31.66;32.90;100596.44;4981434;28;20062;-79
2022/06/06 14:03:08;;;;;;;22.30;3.03;;;;;;;31.65;33.00;100599.69;4970187;28;20054;-79
2022/06/06 14:06:28;;;;;;;8.13;1.38;;;;;;;31.61;33.18;100602.66;4968251;28;20059;-77
2022/06/06 14:09:16;;;;;;;9.35;1.30;;;;;;;31.47;32.75;100594.75;4979644;28;20046;-80
2022/06/06 14:12:24;;;;;;;3.78;1.23;;;;;;;31.38;32.84;100592.69;4969717;28;20046;-86
2022/06/06 14:15:13;;;;;;;7.43;1.17;;;;;;;31.28;33.10;100588.28;4990438;28;20050;-78
2022/06/06 14:18:09;;;;;;;4.57;0.75;;;;;;;31.23;32.93;100583.25;4976443;28;20062;-79
2022/06/06 14:20:57;;;;;;;8.43;1.40;;;;;;;31.21;32.61;100585.72;4975251;28;20069;-79
2022/06/06 14:23:43;;;;;;;7.55;1.58;;;;;;;31.30;32.89;100594.19;4964167;28;20042;-79